Tiempo atmosférico en la estación meteorológica de Naut Aran, Arties, Lleida (1185 m.)



Fecha
DESCASC
Temp. máxima en grados centígrados (hora)
DESCASC
Temp. mínima en grados centígrados (hora)
DESCASC
Temp. media en grados centígrados
DESCASC
Racha de viento máxima en m/sg (hora)
DESCASC
Velocidad máxima media en intervalos de 10 minutos(hora)
DESCASC
Precipitaciones diarias en mm
DESCASC
Precipitaciones de 00:00 a 06:00 en mm
DESCASC
Precipitaciones de 06:00 a 12:00 en mm
DESCASC
Precipitaciones de 12:00 a 18:00 en mm
DESCASC
Precipitaciones de 18:00 a 24:00 en mm
DESCASC
22-11-2020 11 (13:40) 0 (01:40) 5.5 4.72 (21:40) 2.5 (23:59) 0 0 0 0 0
21-11-2020 10.2 (13:20) -3.7 (05:00) 3.2 4.17 (21:40) 2.22 (21:30) 0 0 0 0 0
20-11-2020 8.5 (13:30) -2 (23:59) 3.3 8.06 (15:10) 2.22 (15:10) 0 0 0 0 0
19-11-2020 13.1 (12:30) 3 (00:00) 8.1 5.56 (17:20) 2.22 (05:20) 0 0 0 0 0
18-11-2020 18.2 (14:50) 5.8 (00:00) 12 6.39 (00:40) 3.33 (01:30) 0 0 0 0 0
17-11-2020 16.1 (13:40) 0.8 (00:00) 8.5 5 (22:30) 2.22 (09:10) 0 0 0 0 0
16-11-2020 11.3 (13:20) 1.6 (00:00) 6.5 5.83 (11:30) 1.94 (00:50) 0.7 0.6 0.1 0 0
15-11-2020 17.7 (14:20) 7 (01:20) 12.4 5 (02:20) 2.22 (07:50) 0.1 0 0 0 0.1
14-11-2020 16.5 (13:10) 7.7 (06:20) 12.1 7.22 (13:40) 2.78 (13:20) 0 0 0 0 0
13-11-2020 17.2 (13:40) 6.5 (19:10) 11.9 6.11 (01:50) 2.5 (03:50) 0 0 0 0 0

Gráficas

Temp. máximas Temp. mínimas Temp. medias Precipitaciones Rachas de viento máximas Velocidades máximas media en intervalos de 10 minutos

Datos horarios

Fecha y hora oficial Temperatura (ºC) Velocidad del viento (km/h) Dirección del viento Racha (km/h) Dirección de racha Precipitación (mm) Presión (hPa) Tendencia (hPa) Humedad (%)
2020-11-24 23:00:00 7.2 6 Este 23 Este 0 -- -- 48
2020-11-24 22:00:00 6.6 6 Este 18 Sudeste 0 -- -- 49
2020-11-24 21:00:00 3.9 0 Calma 13 Sudeste 0 -- -- 60
2020-11-24 20:00:00 5.7 8 Nordeste 14 Este 0 -- -- 55
2020-11-24 19:00:00 4.5 0 Calma 3 Este 0 -- -- 63
2020-11-24 18:00:00 6.3 2 Nordeste 8 Nordeste 0 -- -- 59
2020-11-24 17:00:00 8.4 0 Calma 5 Sudeste 0 -- -- 54
2020-11-24 16:00:00 9.6 0 Calma 5 Oeste 0 -- -- 53
2020-11-24 15:00:00 12.8 0 Calma 3 Nordeste 0 -- -- 47
2020-11-24 14:00:00 12.9 0 Calma 4 Este 0 -- -- 46
2020-11-24 13:00:00 12.4 0 Calma 7 Este 0 -- -- 49
2020-11-24 12:00:00 8.6 2 Este 7 Nordeste 0 -- -- 55
2020-11-24 11:00:00 6.8 0 Calma 18 Sudeste 0 -- -- 53
2020-11-24 10:00:00 9.7 7 Este 20 Este 0 -- -- 42
2020-11-24 09:00:00 8.8 8 Sudeste 20 Sudeste 0 -- -- 42
2020-11-24 08:00:00 8.2 9 Este 21 Sudeste 0 -- -- 43
2020-11-24 07:00:00 7.5 4 Este 19 Este 0 -- -- 47
2020-11-24 06:00:00 3.2 0 Calma 14 Nordeste 0 -- -- 63
2020-11-24 05:00:00 2.2 0 Calma 6 Sudoeste 0 -- -- 67
2020-11-24 04:00:00 2 0 Calma 6 Este 0 -- -- 66
2020-11-24 03:00:00 1.5 0 Calma 8 Nordeste 0 -- -- 66
2020-11-24 02:00:00 0.8 2 Este 6 Este 0 -- -- 66
2020-11-24 01:00:00 1.2 0 Calma 7 Nordeste 0 -- -- 63
2020-11-24 00:00:00 1.6 2 Este 9 Nordeste 0 -- -- 61
2020-11-23 23:00:00 1.7 0 Calma 13 Nordeste 0 -- -- 61
2020-11-23 22:00:00 1.8 0 Calma 11 Este 0 -- -- 62
2020-11-23 21:00:00 1.7 3 Este 13 Nordeste 0 -- -- 63
2020-11-23 20:00:00 2.9 5 Nordeste 13 Este 0 -- -- 60
2020-11-23 19:00:00 2.3 0 Calma 9 Nordeste 0 -- -- 62
2020-11-23 18:00:00 2.9 0 Calma 4 Sudeste 0 -- -- 62
2020-11-23 17:00:00 4.9 0 Calma 3 Nordeste 0 -- -- 58
2020-11-23 16:00:00 7.6 0 Calma 7 Sur 0 -- -- 43
2020-11-23 15:00:00 10.8 0 Calma 10 Sudeste 0 -- -- 37
2020-11-23 14:00:00 10.5 0 Calma 8 Sudeste 0 -- -- 41
2020-11-23 13:00:00 10.5 0 Calma 6 Sudeste 0 -- -- 46
2020-11-23 12:00:00 5 2 Este 4 Nordeste 0 -- -- 63
2020-11-23 11:00:00 1.5 0 Calma 5 Nordeste 0 -- -- 73
2020-11-23 10:00:00 0.6 0 Calma 9 Este 0 -- -- 71
2020-11-23 09:00:00 0.1 3 Nordeste 14 Este 0 -- -- 69
2020-11-23 08:00:00 1.7 4 Este 12 Este 0 -- -- 66
2020-11-23 07:00:00 1.2 2 Nordeste 15 Este 0 -- -- 65
2020-11-23 06:00:00 1.7 7 Nordeste 15 Nordeste 0 -- -- 63
2020-11-23 05:00:00 0 4 Este 10 Nordeste 0 -- -- 70
2020-11-23 04:00:00 -0.4 0 Calma 8 Este 0 -- -- 69
2020-11-23 03:00:00 0.5 0 Calma 10 Este 0 -- -- 66
2020-11-23 02:00:00 2 0 Calma 20 Este 0 -- -- 60
2020-11-23 01:00:00 0.2 2 Nordeste 16 Este 0 -- -- 66
2020-11-23 00:00:00 2.4 9 Nordeste 15 Este 0 -- -- 57
2020-11-22 23:00:00 1.1 0 Calma 13 Este 0 -- -- 61
2020-11-22 22:00:00 3.6 7 Este 17 Este 0 -- -- 51
2020-11-22 21:00:00 1.1 3 Este 8 Nordeste 0 -- -- 61
2020-11-22 20:00:00 1.8 2 Este 12 Este 0 -- -- 58
2020-11-22 19:00:00 1.8 0 Calma 6 Nordeste 0 -- -- 60
2020-11-22 18:00:00 3.2 0 Calma 4 Nordeste 0 -- -- 57
2020-11-22 17:00:00 5 0 Calma 3 Nordeste 0 -- -- 51
2020-11-22 16:00:00 7.1 0 Calma 4 Este 0 -- -- 45
2020-11-22 15:00:00 10.2 0 Calma 2 Nordeste 0 -- -- 41
2020-11-22 14:00:00 10.5 0 Calma 4 Nordeste 0 -- -- 41
2020-11-22 13:00:00 9.6 0 Calma 5 Este 0 -- -- 43
2020-11-22 12:00:00 5.9 2 Este 5 Nordeste 0 -- -- 52
2020-11-22 11:00:00 1.7 3 Nordeste 5 Nordeste 0 -- -- 63
2020-11-22 10:00:00 1.4 0 Calma 10 Nordeste 0 -- -- 56
2020-11-22 09:00:00 2.2 5 Este 9 Este 0 -- -- 50
2020-11-22 08:00:00 1.8 0 Calma 11 Nordeste 0 -- -- 48
2020-11-22 07:00:00 1.8 3 Este 14 Este 0 -- -- 49
2020-11-22 06:00:00 2.6 7 Este 16 Este 0 -- -- 45
2020-11-22 05:00:00 0.6 0 Calma 11 Nordeste 0 -- -- 54
2020-11-22 04:00:00 0.5 2 Este 14 Este 0 -- -- 54
2020-11-22 03:00:00 0 0 Calma 8 Nordeste 0 -- -- 57
2020-11-22 02:00:00 0.5 3 Este 10 Este 0 -- -- 55
2020-11-22 01:00:00 2 3 Nordeste 15 Este 0 -- -- 50
2020-11-22 00:00:00 0.7 0 Calma 10 Nordeste 0 -- -- 57
2020-11-21 23:00:00 1.1 3 Este 8 Nordeste 0 -- -- 56
2020-11-21 22:00:00 1.2 2 Nordeste 15 Nordeste 0 -- -- 54
2020-11-21 21:00:00 1.8 4 Este 13 Este 0 -- -- 57
2020-11-21 20:00:00 0.5 4 Este 11 Este 0 -- -- 60
2020-11-21 19:00:00 2 3 Este 14 Nordeste 0 -- -- 53
2020-11-21 18:00:00 3.4 7 Este 14 Este 0 -- -- 50
2020-11-21 17:00:00 3.6 4 Este 10 Este 0 -- -- 49
2020-11-21 16:00:00 4.4 0 Calma 4 Sudeste 0 -- -- 48
2020-11-21 15:00:00 8.7 0 Calma 7 Sudeste 0 -- -- 33
2020-11-21 14:00:00 8.9 0 Calma 5 Sudoeste 0 -- -- 36
2020-11-21 13:00:00 7.7 0 Calma 4 Sudeste 0 -- -- 47
2020-11-21 12:00:00 3.1 3 Este 5 Nordeste 0 -- -- 57
2020-11-21 11:00:00 -0.5 0 Calma 7 Nordeste 0 -- -- 62
2020-11-21 10:00:00 -1.5 0 Calma 10 Sudeste 0 -- -- 58
2020-11-21 09:00:00 -2.4 2 Nordeste 13 Este 0 -- -- 57
2020-11-21 08:00:00 -3.2 2 Nordeste 9 Este 0 -- -- 60
2020-11-21 07:00:00 -3.3 2 Este 9 Nordeste 0 -- -- 59
2020-11-21 06:00:00 -3.2 2 Este 13 Nordeste 0 -- -- 58
2020-11-21 05:00:00 -3.7 2 Nordeste 10 Sudeste 0 -- -- 63
2020-11-21 04:00:00 -2.8 0 Calma 10 Este 0 -- -- 59
2020-11-21 03:00:00 -2.1 5 Este 14 Este 0 -- -- 57
2020-11-21 02:00:00 -2.7 0 Calma 9 Este 0 -- -- 72
2020-11-21 01:00:00 -2.8 2 Nordeste 6 Nordeste 0 -- -- 82
2020-11-21 00:00:00 -2 0 Calma 8 Este 0 -- -- 86
2020-11-20 23:00:00 -0.7 2 Este 13 Este 0 -- -- 85
2020-11-20 22:00:00 -0.3 0 Calma 5 Nordeste 0 -- -- 86
2020-11-20 21:00:00 0.7 2 Nordeste 6 Nordeste 0 -- -- 82
2020-11-20 20:00:00 0.8 3 Nordeste 13 Noroeste 0 -- -- 79
2020-11-20 19:00:00 2.4 0 Calma 11 Noroeste 0 -- -- 70
2020-11-20 18:00:00 2.9 3 Sur 10 Sudoeste 0 -- -- 55
2020-11-20 17:00:00 5.2 4 Sudoeste 13 Sudoeste 0 -- -- 33
2020-11-20 16:00:00 6.4 4 Sudoeste 29 Oeste 0 -- -- 26
2020-11-20 15:00:00 7.3 7 Sudoeste 20 Sudoeste 0 -- -- 25
2020-11-20 14:00:00 7.8 7 Sudoeste 18 Sur 0 -- -- 26
2020-11-20 13:00:00 8.1 6 Sudoeste 18 Sudoeste 0 -- -- 32
2020-11-20 12:00:00 5.2 3 Sudoeste 15 Este 0 -- -- 61
2020-11-20 11:00:00 2.1 6 Este 14 Nordeste 0 -- -- 76
2020-11-20 10:00:00 1.8 2 Sudoeste 23 Sudoeste 0 -- -- 78
2020-11-20 09:00:00 2 5 Sudoeste 21 Oeste 0 -- -- 79
2020-11-20 08:00:00 1.3 0 Calma 4 Noroeste 0 -- -- 90
2020-11-20 07:00:00 1.8 3 Nordeste 11 Nordeste 0 -- -- 89
2020-11-20 06:00:00 1.5 2 Este 12 Sudoeste 0 -- -- 90
2020-11-20 05:00:00 2.1 2 Oeste 10 Sudoeste 0 -- -- 90
2020-11-20 04:00:00 2.8 3 Sudeste 10 Noroeste 0 -- -- 93
2020-11-20 03:00:00 3.1 3 Sudoeste 10 Sudoeste 0 -- -- 94
2020-11-20 02:00:00 3.8 3 Sudoeste 11 Oeste 0 -- -- 93
2020-11-20 01:00:00 3.8 3 Sudoeste 7 Oeste 0 -- -- 93
2020-11-20 00:00:00 4.1 0 Calma 9 Oeste 0 -- -- 90
2020-11-19 23:00:00 4.8 0 Calma 13 Noroeste 0 -- -- 90
2020-11-19 22:00:00 5.2 0 Calma 18 Sur 0 -- -- 93
2020-11-19 21:00:00 4.8 0 Calma 8 Sudoeste 0 -- -- 93
2020-11-19 20:00:00 5.3 3 Nordeste 13 Oeste 0 -- -- 90
2020-11-19 19:00:00 6.2 3 Sudoeste 14 Sudoeste 0 -- -- 87
2020-11-19 18:00:00 6.8 6 Sudoeste 20 Sudoeste 0 -- -- 86
2020-11-19 17:00:00 8.1 6 Sudoeste 18 Sudoeste 0 -- -- 87
2020-11-19 16:00:00 9.4 4 Oeste 17 Oeste 0 -- -- 87
2020-11-19 15:00:00 10.1 3 Oeste 14 Oeste 0 -- -- 91
2020-11-19 14:00:00 10.3 4 Sudoeste 17 Oeste 0 -- -- 85
2020-11-19 13:00:00 12.4 5 Sudoeste 16 Oeste 0 -- -- 65
2020-11-19 12:00:00 12.4 3 Este 9 Nordeste 0 -- -- 65
2020-11-19 11:00:00 10.4 0 Calma 7 Este 0 -- -- 70
2020-11-19 10:00:00 9 4 Este 6 Nordeste 0 -- -- 74
2020-11-19 09:00:00 6.4 2 Nordeste 10 Nordeste 0 -- -- 81
2020-11-19 08:00:00 4.7 7 Este 15 Nordeste 0 -- -- 83
2020-11-19 07:00:00 3.6 0 Calma 10 Este 0 -- -- 85
2020-11-19 06:00:00 5.1 4 Nordeste 15 Este 0 -- -- 79
2020-11-19 05:00:00 3.9 3 Nordeste 11 Este 0 -- -- 82
2020-11-19 04:00:00 3.7 0 Calma 11 Este 0 -- -- 83
2020-11-19 03:00:00 3.8 0 Calma 5 Nordeste 0 -- -- 83
2020-11-19 02:00:00 4.8 0 Calma 5 Nordeste 0 -- -- 80
2020-11-19 01:00:00 5.3 0 Calma 8 Nordeste 0 -- -- 77
2020-11-19 00:00:00 6.5 4 Nordeste 10 Este 0 -- -- 74
2020-11-18 23:00:00 7.5 6 Nordeste 13 Nordeste 0 -- -- 71
2020-11-18 22:00:00 7.2 4 Este 16 Nordeste 0 -- -- 73
2020-11-18 21:00:00 8.3 7 Este 14 Este 0 -- -- 69
2020-11-18 20:00:00 8.1 4 Este 12 Este 0 -- -- 72
2020-11-18 19:00:00 7.7 0 Calma 5 Este 0 -- -- 73
2020-11-18 18:00:00 9.8 0 Calma 10 Nordeste 0 -- -- 64
2020-11-18 17:00:00 13.5 0 Calma 16 Sudoeste 0 -- -- 48
2020-11-18 16:00:00 16.8 4 Sudoeste 18 Sur 0 -- -- 40
2020-11-18 15:00:00 17.7 6 Sudoeste 19 Oeste 0 -- -- 38
2020-11-18 14:00:00 17.1 2 Sudoeste 8 Oeste 0 -- -- 46
2020-11-18 13:00:00 17.3 2 Sudeste 6 Sudeste 0 -- -- 48
2020-11-18 12:00:00 13.3 2 Sudeste 5 Sudeste 0 -- -- 57
2020-11-18 11:00:00 8.5 0 Calma 4 Nordeste 0 -- -- 73
2020-11-18 10:00:00 7.2 0 Calma 15 Nordeste 0 -- -- 72
2020-11-18 09:00:00 7 2 Este 14 Este 0 -- -- 68
2020-11-18 08:00:00 8.7 4 Este 17 Nordeste 0 -- -- 58
2020-11-18 07:00:00 7.1 0 Calma 16 Este 0 -- -- 65
2020-11-18 06:00:00 9.9 7 Este 16 Sudeste 0 -- -- 55
2020-11-18 05:00:00 7.7 0 Calma 15 Este 0 -- -- 62
2020-11-18 04:00:00 11.3 7 Este 21 Sudeste 0 -- -- 50
2020-11-18 03:00:00 11.8 7 Este 19 Este 0 -- -- 49
2020-11-18 02:00:00 11.9 8 Este 22 Este 0 -- -- 50
2020-11-18 01:00:00 12.2 11 Este 23 Sudeste 0 -- -- 50
2020-11-18 00:00:00 11.3 7 Este 17 Sudeste 0 -- -- 55
2020-11-17 23:00:00 10.9 6 Este 18 Este 0 -- -- 58
2020-11-17 22:00:00 9.6 6 Este 16 Este 0 -- -- 65
2020-11-17 21:00:00 7 0 Calma 8 Este 0 -- -- 81
2020-11-17 20:00:00 7.3 0 Calma 7 Este 0 -- -- 80
2020-11-17 19:00:00 7.9 3 Este 10 Este 0 -- -- 77
2020-11-17 18:00:00 8.3 2 Este 9 Nordeste 0 -- -- 77
2020-11-17 17:00:00 10.2 4 Este 9 Sudeste 0 -- -- 68
2020-11-17 16:00:00 11.1 0 Calma 6 Sudeste 0 -- -- 66
2020-11-17 15:00:00 14.2 0 Calma 4 Sudeste 0 -- -- 54
2020-11-17 14:00:00 14.8 0 Calma 4 Sudoeste 0 -- -- 53
2020-11-17 13:00:00 14.1 0 Calma 4 Este 0 -- -- 62
2020-11-17 12:00:00 11.2 2 Este 5 Sudeste 0 -- -- 72
2020-11-17 11:00:00 6.7 2 Este 4 Nordeste 0 -- -- 86
2020-11-17 10:00:00 5.6 0 Calma 13 Este 0 -- -- 80
2020-11-17 09:00:00 4.7 4 Este 10 Este 0 -- -- 79
2020-11-17 08:00:00 3.7 2 Este 12 Nordeste 0 -- -- 75
2020-11-17 07:00:00 2.7 0 Calma 9 Nordeste 0 -- -- 73
2020-11-17 06:00:00 2.6 3 Este 12 Este 0 -- -- 68
2020-11-17 05:00:00 3.5 5 Este 12 Nordeste 0 -- -- 57
2020-11-17 04:00:00 1.9 4 Nordeste 10 Nordeste 0 -- -- 70
2020-11-17 03:00:00 2.5 6 Este 12 Este 0 -- -- 64
2020-11-17 02:00:00 1 0 Calma 10 Nordeste 0 -- -- 79
2020-11-17 01:00:00 1.4 3 Nordeste 16 Este 0 -- -- 83
2020-11-17 00:00:00 1.7 3 Este 8 Este 0 -- -- 89
2020-11-16 23:00:00 2.6 0 Calma 9 Nordeste 0 -- -- 88
2020-11-16 22:00:00 4.2 5 Nordeste 13 Este 0 -- -- 82
2020-11-16 21:00:00 5.7 2 Este 9 Este 0 -- -- 83
2020-11-16 20:00:00 5.1 5 Este 9 Nordeste 0 -- -- 90
2020-11-16 19:00:00 4.7 0 Calma 8 Este 0 -- -- 89
2020-11-16 18:00:00 5.8 3 Nordeste 5 Este 0 -- -- 86
2020-11-16 17:00:00 8.2 3 Oeste 17 Oeste 0 -- -- 74
2020-11-16 16:00:00 8.8 6 Sudoeste 20 Oeste 0 -- -- 74
2020-11-16 15:00:00 9.6 4 Oeste 15 Oeste 0 -- -- 71
2020-11-16 14:00:00 10 4 Sudoeste 12 Sudoeste 0 -- -- 72
2020-11-16 13:00:00 10.4 4 Oeste 12 Noroeste 0 -- -- 70
2020-11-16 12:00:00 8.2 4 Sudoeste 21 Oeste 0 -- -- 84
2020-11-16 11:00:00 7.9 4 Oeste 15 Oeste 0 -- -- 86
2020-11-16 10:00:00 8.1 3 Sudoeste 11 Oeste 0 -- -- 90
2020-11-16 09:00:00 7.4 0 Calma 12 Oeste 0 -- -- 93
2020-11-16 08:00:00 7.2 2 Sudoeste 10 Oeste 0 -- -- 93
2020-11-16 07:00:00 7.4 0 Calma 14 Noroeste 0.1 -- -- 93
2020-11-16 06:00:00 7.9 3 Oeste 13 Oeste 0 -- -- 93
2020-11-16 05:00:00 8.4 3 Sudoeste 15 Sudoeste 0 -- -- 93
2020-11-16 04:00:00 8.9 3 Sudoeste 11 Oeste 0 -- -- 92
2020-11-16 03:00:00 9.2 3 Sudoeste 10 Sudoeste 0 -- -- 95
2020-11-16 02:00:00 9.3 0 Calma 8 Nordeste 0.1 -- -- 94